sensor_id;sensor_type;location;lat;lon;timestamp;pressure;altitude;pressure_sealevel;temperature;humidity
84649;BME280;74877;52.392;16.888;2024-01-16T00:30:10;99089.0;;;-2.12;71.27
84649;BME280;74877;52.392;16.888;2024-01-16T00:45:10;99127.0;;;-2.32;72.75
84649;BME280;74877;52.392;16.888;2024-01-16T01:00:10;99150.0;;;-2.33;72.61
84649;BME280;74877;52.392;16.888;2024-01-16T01:15:10;99166.0;;;-2.3;71.77
84649;BME280;74877;52.392;16.888;2024-01-16T01:30:10;99179.0;;;-2.27;71.82
84649;BME280;74877;52.392;16.888;2024-01-16T01:45:10;99214.0;;;-2.25;73.01
84649;BME280;74877;52.392;16.888;2024-01-16T02:00:10;99229.0;;;-2.31;73.04
84649;BME280;74877;52.392;16.888;2024-01-16T02:15:10;99243.0;;;-2.49;74.74
84649;BME280;74877;52.392;16.888;2024-01-16T02:30:10;99262.0;;;-2.65;75.32
84649;BME280;74877;52.392;16.888;2024-01-16T02:50:11;99290.0;;;-2.57;75.94
84649;BME280;74877;52.392;16.888;2024-01-16T03:05:11;99308.0;;;-2.7;76.15
84649;BME280;74877;52.392;16.888;2024-01-16T03:20:11;99335.0;;;-2.73;75.47
84649;BME280;74877;52.392;16.888;2024-01-16T03:35:11;99348.0;;;-2.8;75.15
84649;BME280;74877;52.392;16.888;2024-01-16T03:50:11;99373.0;;;-2.9;75.35
84649;BME280;74877;52.392;16.888;2024-01-16T04:05:11;99377.0;;;-2.99;75.39
84649;BME280;74877;52.392;16.888;2024-01-16T04:20:10;99395.0;;;-3.11;75.55
84649;BME280;74877;52.392;16.888;2024-01-16T04:35:11;99404.0;;;-3.29;76.65
84649;BME280;74877;52.392;16.888;2024-01-16T04:50:10;99434.0;;;-3.61;77.33
84649;BME280;74877;52.392;16.888;2024-01-16T05:05:11;99444.0;;;-3.84;77.63
84649;BME280;74877;52.392;16.888;2024-01-16T05:20:10;99458.0;;;-4.05;77.94
84649;BME280;74877;52.392;16.888;2024-01-16T05:35:10;99481.0;;;-4.27;78.95
84649;BME280;74877;52.392;16.888;2024-01-16T05:50:10;99499.0;;;-4.19;78.01
84649;BME280;74877;52.392;16.888;2024-01-16T06:05:10;99512.0;;;-4.23;78.52
84649;BME280;74877;52.392;16.888;2024-01-16T06:20:10;99531.0;;;-4.17;78.29
84649;BME280;74877;52.392;16.888;2024-01-16T06:35:10;99558.0;;;-4.27;78.21
84649;BME280;74877;52.392;16.888;2024-01-16T06:50:10;99580.0;;;-4.39;79.13
84649;BME280;74877;52.392;16.888;2024-01-16T07:05:10;99620.0;;;-4.45;79.76
84649;BME280;74877;52.392;16.888;2024-01-16T07:20:10;99659.0;;;-4.15;79.12
84649;BME280;74877;52.392;16.888;2024-01-16T07:35:10;99672.0;;;-3.76;78.36
84649;BME280;74877;52.392;16.888;2024-01-16T07:50:10;99684.0;;;-3.22;76.67
84649;BME280;74877;52.392;16.888;2024-01-16T08:05:10;99705.0;;;-2.9;76.02
84649;BME280;74877;52.392;16.888;2024-01-16T08:20:10;99713.0;;;-2.64;74.52
84649;BME280;74877;52.392;16.888;2024-01-16T08:35:10;99742.0;;;-2.41;73.97
84649;BME280;74877;52.392;16.888;2024-01-16T08:50:10;99766.0;;;-2.31;72.29
84649;BME280;74877;52.392;16.888;2024-01-16T09:05:10;99767.0;;;-1.94;70.4
84649;BME280;74877;52.392;16.888;2024-01-16T09:20:10;99778.0;;;-1.93;69.26
84649;BME280;74877;52.392;16.888;2024-01-16T09:35:10;99794.0;;;-1.53;67.0
84649;BME280;74877;52.392;16.888;2024-01-16T09:50:10;99810.0;;;-1.26;66.32
84649;BME280;74877;52.392;16.888;2024-01-16T10:05:10;99828.0;;;-1.26;67.54
84649;BME280;74877;52.392;16.888;2024-01-16T10:20:10;99843.0;;;-1.65;67.63
84649;BME280;74877;52.392;16.888;2024-01-16T10:35:10;99828.0;;;-1.52;67.2
84649;BME280;74877;52.392;16.888;2024-01-16T10:50:10;99839.0;;;-1.63;67.92
84649;BME280;74877;52.392;16.888;2024-01-16T11:05:10;99823.0;;;-1.66;65.29
84649;BME280;74877;52.392;16.888;2024-01-16T11:20:10;99835.0;;;-1.44;65.49
84649;BME280;74877;52.392;16.888;2024-01-16T11:35:10;99844.0;;;0.58;58.33
84649;BME280;74877;52.392;16.888;2024-01-16T11:50:10;99864.0;;;-0.9;63.03
84649;BME280;74877;52.392;16.888;2024-01-16T12:05:10;99859.0;;;-0.8;63.62
84649;BME280;74877;52.392;16.888;2024-01-16T12:20:10;99860.0;;;-1.23;65.56
84649;BME280;74877;52.392;16.888;2024-01-16T12:35:10;99863.0;;;-1.17;66.29
84649;BME280;74877;52.392;16.888;2024-01-16T12:50:10;99868.0;;;-1.31;66.81
84649;BME280;74877;52.392;16.888;2024-01-16T13:05:10;99857.0;;;0.56;61.39
84649;BME280;74877;52.392;16.888;2024-01-16T13:20:10;99874.0;;;-0.9599999;67.3
84649;BME280;74877;52.392;16.888;2024-01-16T13:35:10;99881.0;;;-1.51;72.32
84649;BME280;74877;52.392;16.888;2024-01-16T13:50:10;99890.0;;;-1.66;75.44
84649;BME280;74877;52.392;16.888;2024-01-16T14:05:10;99888.0;;;-1.47;75.2
84649;BME280;74877;52.392;16.888;2024-01-16T14:20:10;99904.0;;;-1.78;75.83
84649;BME280;74877;52.392;16.888;2024-01-16T14:35:10;99909.0;;;-1.73;77.53
84649;BME280;74877;52.392;16.888;2024-01-16T14:50:10;99923.0;;;-1.88;79.77
84649;BME280;74877;52.392;16.888;2024-01-16T15:05:10;99931.0;;;-1.89;80.03
84649;BME280;74877;52.392;16.888;2024-01-16T15:20:10;99935.0;;;-1.93;79.58
84649;BME280;74877;52.392;16.888;2024-01-16T15:35:10;99916.0;;;-1.94;79.74
84649;BME280;74877;52.392;16.888;2024-01-16T15:50:10;99915.0;;;-1.99;80.27
84649;BME280;74877;52.392;16.888;2024-01-16T16:05:10;99921.0;;;-2.05;81.42
84649;BME280;74877;52.392;16.888;2024-01-16T16:20:10;99936.0;;;-2.19;83.87
84649;BME280;74877;52.392;16.888;2024-01-16T16:45:10;99911.0;;;-2.41;89.09
84649;BME280;74877;52.392;16.888;2024-01-16T17:00:10;99891.0;;;-2.4;90.23
84649;BME280;74877;52.392;16.888;2024-01-16T17:15:10;99880.0;;;-2.27;90.62
84649;BME280;74877;52.392;16.888;2024-01-16T17:30:10;99882.0;;;-2.26;90.82
84649;BME280;74877;52.392;16.888;2024-01-16T17:45:10;99873.0;;;-2.33;91.01
84649;BME280;74877;52.392;16.888;2024-01-16T18:00:10;99885.0;;;-2.2;91.0
84649;BME280;74877;52.392;16.888;2024-01-16T18:15:10;99884.0;;;-2.22;91.47
84649;BME280;74877;52.392;16.888;2024-01-16T18:30:10;99880.0;;;-2.11;91.59
84649;BME280;74877;52.392;16.888;2024-01-16T18:45:10;99869.0;;;-1.99;91.16
84649;BME280;74877;52.392;16.888;2024-01-16T19:00:10;99876.0;;;-1.8;90.8
84649;BME280;74877;52.392;16.888;2024-01-16T19:15:10;99885.0;;;-1.6;90.25
84649;BME280;74877;52.392;16.888;2024-01-16T19:30:10;99885.0;;;-1.34;89.6
84649;BME280;74877;52.392;16.888;2024-01-16T19:45:10;99905.0;;;-1.25;90.45
84649;BME280;74877;52.392;16.888;2024-01-16T20:00:10;99911.0;;;-1.16;90.31
84649;BME280;74877;52.392;16.888;2024-01-16T20:15:10;99907.0;;;-1.17;90.25
84649;BME280;74877;52.392;16.888;2024-01-16T20:30:10;99916.0;;;-1.18;90.14
84649;BME280;74877;52.392;16.888;2024-01-16T20:45:10;99919.0;;;-1.23;90.81
84649;BME280;74877;52.392;16.888;2024-01-16T21:00:10;99926.0;;;-1.26;90.93
84649;BME280;74877;52.392;16.888;2024-01-16T21:15:10;99912.0;;;-1.29;91.27
84649;BME280;74877;52.392;16.888;2024-01-16T21:30:10;99908.0;;;-1.24;91.13
84649;BME280;74877;52.392;16.888;2024-01-16T21:45:10;99914.0;;;-1.21;90.71
